Time;durP1;ratioP1;P1;durP2;ratioP2;P2;SDS_P1;SDS_P2;PMS_P1;PMS_P2;Temp;Humidity;BMP_temperature;BMP_pressure;BME280_temperature;BME280_humidity;BME280_pressure;Samples;Min_cycle;Max_cycle;Signal;HPM_P1;HPM_P2
2021/11/17 02:28:15;;;;;;;;;;;9.20;99.90;;;;;;5034071;28;20488;-85
2021/11/17 02:31:05;;;;;;;15.85;7.20;;;9.20;99.90;;;;;;5017250;28;19924;-86
2021/11/17 02:33:33;;;;;;;20.98;9.65;;;9.20;99.90;;;;;;5033024;28;20056;-86
2021/11/17 02:36:20;;;;;;;15.18;7.32;;;9.10;99.90;;;;;;5055235;28;20048;-85
2021/11/17 02:38:59;;;;;;;16.33;8.25;;;9.20;99.90;;;;;;5036505;28;20056;-86
2021/11/17 02:41:27;;;;;;;15.30;7.20;;;9.40;99.90;;;;;;5052727;28;20048;-86
2021/11/17 02:44:07;;;;;;;14.18;7.35;;;9.10;99.90;;;;;;5062109;28;20059;-86
2021/11/17 02:47:07;;;;;;;14.52;6.68;;;9.10;99.90;;;;;;5032469;28;20044;-86
2021/11/17 02:49:51;;;;;;;20.95;8.55;;;9.10;99.90;;;;;;5052246;28;20063;-86
2021/11/17 02:52:56;;;;;;;13.30;6.53;;;9.10;99.90;;;;;;5037292;28;20059;-86
2021/11/17 02:55:33;;;;;;;14.15;7.05;;;9.00;99.90;;;;;;5069681;28;20059;-87
2021/11/17 02:58:00;;;;;;;15.68;7.63;;;9.00;99.90;;;;;;5052699;28;20052;-86
2021/11/17 03:00:43;;;;;;;12.65;7.30;;;9.00;99.90;;;;;;5032965;28;20056;-86
2021/11/17 03:03:30;;;;;;;15.45;6.03;;;9.00;99.90;;;;;;5053095;28;20052;-85
2021/11/17 03:06:19;;;;;;;16.63;6.90;;;8.90;99.90;;;;;;5053043;28;20514;-86
2021/11/17 03:08:53;;;;;;;12.05;5.30;;;8.90;99.90;;;;;;5037102;28;20045;-85
2021/11/17 03:11:25;;;;;;;14.32;6.45;;;8.90;99.90;;;;;;5036899;28;20060;-87
2021/11/17 03:13:59;;;;;;;11.68;6.03;;;9.00;99.90;;;;;;5050829;28;20049;-85
2021/11/17 03:16:42;;;;;;;18.20;7.85;;;9.00;99.90;;;;;;5041063;28;20045;-86
2021/11/17 03:19:39;;;;;;;12.43;6.60;;;9.00;99.90;;;;;;5034248;28;20044;-85
2021/11/17 03:22:53;;;;;;;15.23;7.22;;;8.90;99.90;;;;;;5036924;28;20053;-86
2021/11/17 03:25:42;;;;;;;13.02;6.15;;;8.90;99.90;;;;;;5052386;28;20498;-86
2021/11/17 03:28:32;;;;;;;18.77;7.38;;;8.90;99.90;;;;;;5021031;28;20057;-87
2021/11/17 03:31:12;;;;;;;12.90;6.45;;;8.90;99.90;;;;;;5039159;28;20044;-86
2021/11/17 03:34:02;;;;;;;15.55;6.28;;;8.80;99.90;;;;;;5052888;28;20045;-85
2021/11/17 03:36:37;;;;;;;16.80;7.13;;;8.80;99.90;;;;;;5045131;28;20052;-86
2021/11/17 03:39:34;;;;;;;12.68;5.95;;;8.80;99.90;;;;;;5056714;28;20068;-87
2021/11/17 03:42:27;;;;;;;14.95;7.47;;;8.80;99.90;;;;;;5022780;28;20071;-87
2021/11/17 03:45:23;;;;;;;11.25;5.35;;;8.80;99.90;;;;;;5041352;28;20496;-86
2021/11/17 03:48:13;;;;;;;13.20;5.78;;;8.80;99.90;;;;;;5046808;28;20446;-87
2021/11/17 03:51:03;;;;;;;19.40;6.35;;;8.70;99.90;;;;;;5010364;28;20045;-86
2021/11/17 03:54:03;;;;;;;14.02;5.97;;;8.70;99.90;;;;;;5027634;28;20542;-86
2021/11/17 03:56:46;;;;;;;14.85;6.30;;;8.70;99.90;;;;;;5009734;28;20056;-86
2021/11/17 03:59:42;;;;;;;14.93;6.78;;;8.60;99.90;;;;;;5042849;28;20103;-87
2021/11/17 04:02:53;;;;;;;10.82;5.05;;;8.60;99.90;;;;;;5029261;28;20044;-86
2021/11/17 04:05:39;;;;;;;30.77;7.20;;;8.60;99.90;;;;;;5025454;28;20052;-86
2021/11/17 04:08:31;;;;;;;18.50;6.13;;;8.60;99.90;;;;;;5040024;28;20057;-87
2021/11/17 04:11:19;;;;;;;12.32;5.55;;;8.60;99.90;;;;;;5038619;28;20041;-87
2021/11/17 04:14:37;;;;;;;20.15;6.70;;;8.50;99.90;;;;;;5056248;28;20396;-84
2021/11/17 04:17:21;;;;;;;10.82;4.68;;;8.50;99.90;;;;;;4988885;28;20061;-87
2021/11/17 04:20:11;;;;;;;14.30;6.55;;;8.50;99.90;;;;;;5050027;28;20049;-86
2021/11/17 04:22:54;;;;;;;14.05;7.97;;;8.50;99.90;;;;;;5038011;28;20495;-86
2021/11/17 04:25:44;;;;;;;15.60;5.93;;;8.50;99.90;;;;;;5021384;28;20057;-85
2021/11/17 04:28:24;;;;;;;16.88;7.18;;;8.50;99.90;;;;;;5036942;28;20053;-85
2021/11/17 04:31:18;;;;;;;7.93;4.32;;;8.40;99.90;;;;;;5020764;28;20045;-86
2021/11/17 04:34:05;;;;;;;13.02;6.05;;;8.40;99.90;;;;;;5009428;28;20048;-85
2021/11/17 04:36:53;;;;;;;11.35;5.60;;;8.40;99.90;;;;;;5020128;28;20049;-85
2021/11/17 04:40:00;;;;;;;14.95;5.55;;;8.30;99.90;;;;;;5033231;28;20068;-86
2021/11/17 04:42:44;;;;;;;12.95;5.97;;;8.30;99.90;;;;;;5038181;28;20049;-85
2021/11/17 04:45:46;;;;;;;16.05;4.97;;;8.30;99.90;;;;;;5007612;28;20045;-86
2021/11/17 04:48:40;;;;;;;11.68;6.00;;;8.30;99.90;;;;;;5024363;28;20053;-86
2021/11/17 04:51:28;;;;;;;11.82;4.90;;;8.30;99.90;;;;;;5002263;28;20387;-86
2021/11/17 04:54:20;;;;;;;11.88;5.32;;;8.30;99.90;;;;;;5024791;28;20064;-86
2021/11/17 04:56:48;;;;;;;15.32;5.65;;;8.30;99.90;;;;;;5007567;28;20053;-86
2021/11/17 04:59:23;;;;;;;12.50;6.72;;;8.30;99.90;;;;;;5052948;28;20396;-86
2021/11/17 05:01:56;;;;;;;13.50;5.35;;;8.40;99.90;;;;;;5024840;28;20059;-87
2021/11/17 05:04:40;;;;;;;12.93;6.95;;;8.30;99.90;;;;;;5055166;28;20052;-87
2021/11/17 05:07:32;;;;;;;13.23;6.13;;;8.40;99.90;;;;;;5028321;28;20076;-86
2021/11/17 05:10:18;;;;;;;11.05;5.88;;;8.40;99.90;;;;;;5052890;28;20048;-86
2021/11/17 05:13:07;;;;;;;9.32;4.22;;;8.40;99.90;;;;;;5039030;28;20048;-86
2021/11/17 05:15:38;;;;;;;15.23;5.13;;;8.30;99.90;;;;;;5035892;28;20045;-86
2021/11/17 05:18:27;;;;;;;10.88;4.85;;;8.30;99.90;;;;;;5039689;28;20495;-85
2021/11/17 05:21:16;;;;;;;13.82;6.70;;;8.30;99.90;;;;;;5025092;28;20049;-86
2021/11/17 05:24:02;;;;;;;10.73;5.05;;;8.20;99.90;;;;;;5051591;28;20049;-85
2021/11/17 05:26:54;;;;;;;10.63;5.38;;;8.20;99.90;;;;;;5033988;28;20045;-86
2021/11/17 05:29:43;;;;;;;18.40;5.28;;;8.20;99.90;;;;;;5008548;28;20049;-86
2021/11/17 05:32:34;;;;;;;13.68;5.82;;;8.20;99.90;;;;;;5032447;28;20044;-86
2021/11/17 05:35:21;;;;;;;9.90;5.20;;;8.10;99.90;;;;;;5048796;28;20051;-84
2021/11/17 05:38:32;;;;;;;12.80;5.80;;;8.10;99.90;;;;;;5048876;28;20305;-86
2021/11/17 05:41:15;;;;;;;16.15;4.85;;;8.00;99.90;;;;;;5028018;28;20052;-85
2021/11/17 05:43:43;;;;;;;14.63;6.32;;;8.00;99.90;;;;;;5037589;28;20067;-85
2021/11/17 05:46:13;;;;;;;15.02;4.93;;;8.00;99.90;;;;;;5047218;28;21636;-84
2021/11/17 05:48:47;;;;;;;14.38;6.03;;;7.90;99.90;;;;;;5031952;28;20436;-85
2021/11/17 05:51:31;;;;;;;13.00;5.53;;;7.90;99.90;;;;;;5051218;28;20048;-86
2021/11/17 05:54:08;;;;;;;11.48;5.47;;;7.80;99.90;;;;;;5022232;28;20589;-84
2021/11/17 05:56:56;;;;;;;14.15;5.32;;;7.80;99.90;;;;;;5052056;28;20055;-85
2021/11/17 05:59:42;;;;;;;14.80;7.03;;;7.70;99.90;;;;;;5040066;28;20041;-85
2021/11/17 06:03:02;;;;;;;16.13;6.38;;;7.70;99.90;;;;;;4993378;28;20601;-85
2021/11/17 06:05:29;;;;;;;10.88;5.25;;;7.70;99.90;;;;;;5011403;28;20052;-86
2021/11/17 06:07:57;;;;;;;12.85;6.25;;;7.60;99.90;;;;;;5056922;28;20060;-85
2021/11/17 06:10:33;;;;;;;10.98;5.20;;;7.60;99.90;;;;;;5042838;28;20382;-85
2021/11/17 06:13:08;;;;;;;14.55;6.68;;;7.60;99.90;;;;;;5041792;28;20056;-86
2021/11/17 06:15:38;;;;;;;13.88;5.88;;;7.70;99.90;;;;;;5058234;28;20511;-86
2021/11/17 06:18:08;;;;;;;13.60;5.93;;;7.70;99.90;;;;;;5062266;28;20044;-85
2021/11/17 06:20:38;;;;;;;17.63;8.18;;;7.70;99.90;;;;;;5043387;28;20048;-86
2021/11/17 06:23:10;;;;;;;15.27;7.43;;;7.80;99.90;;;;;;5062894;28;20060;-85
2021/11/17 06:25:41;;;;;;;13.40;5.97;;;7.90;99.90;;;;;;5045063;28;20055;-87
2021/11/17 06:28:11;;;;;;;17.40;7.18;;;7.90;99.90;;;;;;5064087;28;20055;-85
2021/11/17 06:30:44;;;;;;;10.65;6.10;;;7.90;99.90;;;;;;5010761;28;20048;-86
2021/11/17 06:33:11;;;;;;;20.60;6.85;;;7.90;99.90;;;;;;5032699;28;20044;-85
2021/11/17 06:35:40;;;;;;;16.05;6.85;;;8.00;99.90;;;;;;5048052;28;20056;-85
2021/11/17 06:38:11;;;;;;;17.75;7.05;;;8.00;99.90;;;;;;5057388;28;20045;-85
2021/11/17 06:40:42;;;;;;;38.22;9.98;;;8.10;99.90;;;;;;5026081;28;20045;-86
2021/11/17 06:43:10;;;;;;;;;;;8.20;99.90;;;;;;5043046;28;20079;-86
2021/11/17 06:45:41;;;;;;;18.10;6.63;;;8.20;99.90;;;;;;5055057;28;19931;-86
2021/11/17 06:48:10;;;;;;;16.05;6.38;;;8.30;99.90;;;;;;5024722;28;20040;-84
2021/11/17 06:50:41;;;;;;;14.82;6.45;;;8.20;99.90;;;;;;5058592;28;20048;-87
2021/11/17 06:53:10;;;;;;;14.55;6.82;;;8.30;99.90;;;;;;5037118;28;20052;-87
2021/11/17 06:55:38;;;;;;;16.27;6.78;;;8.30;99.90;;;;;;5043602;28;20046;-86
2021/11/17 06:58:06;;;;;;;13.30;5.47;;;8.30;99.90;;;;;;5035944;28;20063;-86
2021/11/17 07:00:37;;;;;;;17.08;6.80;;;8.40;99.90;;;;;;5066357;28;20049;-86
2021/11/17 07:03:05;;;;;;;15.13;7.20;;;8.40;99.90;;;;;;5059351;28;20056;-86
2021/11/17 07:05:34;;;;;;;17.67;6.93;;;8.40;99.90;;;;;;5053667;28;20464;-87
2021/11/17 07:08:04;;;;;;;16.25;6.15;;;8.40;99.90;;;;;;5032853;28;20040;-88
2021/11/17 07:10:36;;;;;;;11.60;5.50;;;8.50;99.90;;;;;;5033111;28;20048;-87
2021/11/17 07:13:06;;;;;;;17.85;6.82;;;8.50;99.90;;;;;;5051124;28;20041;-88
2021/11/17 07:15:35;;;;;;;20.37;7.60;;;8.50;99.90;;;;;;5039011;28;20558;-88
2021/11/17 07:18:04;;;;;;;14.40;7.82;;;8.40;99.90;;;;;;4702632;28;10000073;-87
2021/11/17 07:20:31;;;;;;;13.93;6.75;;;8.40;99.90;;;;;;5040863;28;20064;-86
2021/11/17 07:23:00;;;;;;;18.13;6.82;;;8.40;99.90;;;;;;5052745;28;20063;-87
2021/11/17 07:25:29;;;;;;;19.15;8.07;;;8.30;99.90;;;;;;5051896;28;20055;-87
2021/11/17 07:27:59;;;;;;;21.83;8.23;;;8.30;99.90;;;;;;5064201;28;20062;-87
2021/11/17 07:30:33;;;;;;;24.38;7.35;;;8.30;99.90;;;;;;5069003;28;20600;-86
2021/11/17 07:33:04;;;;;;;20.02;8.00;;;8.20;99.90;;;;;;5044551;28;20067;-88
2021/11/17 07:35:40;;;;;;;17.17;7.65;;;8.20;99.90;;;;;;5041844;28;20049;-86
2021/11/17 07:38:11;;;;;;;19.35;7.72;;;8.10;99.90;;;;;;5044232;28;20062;-86
2021/11/17 07:40:42;;;;;;;17.17;6.57;;;8.10;99.90;;;;;;5048074;28;20055;-87
2021/11/17 07:43:16;;;;;;;21.20;9.98;;;8.20;99.90;;;;;;5045837;28;20049;-88
2021/11/17 07:45:45;;;;;;;14.05;6.47;;;8.00;99.90;;;;;;5038800;28;20057;-87
2021/11/17 07:48:16;;;;;;;16.40;6.45;;;8.00;99.90;;;;;;5049941;28;20052;-88
2021/11/17 07:50:47;;;;;;;;;;;8.00;99.90;;;;;;5055712;28;20041;-88
2021/11/17 07:53:19;;;;;;;18.83;7.90;;;8.00;99.90;;;;;;5076400;28;20388;-87
2021/11/17 07:55:50;;;;;;;11.53;6.80;;;8.60;99.90;;;;;;5046137;28;20044;-87
2021/11/17 07:58:22;;;;;;;18.98;7.05;;;6.90;99.90;;;;;;5014523;28;20049;-87
2021/11/17 08:00:56;;;;;;;30.02;10.07;;;7.90;99.90;;;;;;5034729;28;20056;-87
2021/11/17 08:03:31;;;;;;;19.60;8.70;;;7.90;99.90;;;;;;5031131;28;20048;-88
2021/11/17 08:06:00;;;;;;;21.33;7.97;;;7.90;99.90;;;;;;5038992;28;20518;-88
2021/11/17 08:08:31;;;;;;;17.63;6.93;;;8.00;99.90;;;;;;5037648;28;20056;-88
2021/11/17 08:11:02;;;;;;;17.90;7.28;;;8.00;99.90;;;;;;5041585;28;20055;-89
2021/11/17 08:13:33;;;;;;;;;;;8.00;99.90;;;;;;5028343;28;20052;-88
2021/11/17 08:16:01;;;;;;;13.43;6.37;;;7.20;99.90;;;;;;5038986;28;19920;-87
2021/11/17 08:18:29;;;;;;;16.45;7.82;;;8.00;99.90;;;;;;5049962;28;20053;-87
2021/11/17 08:20:58;;;;;;;20.38;8.10;;;8.00;99.90;;;;;;5040048;28;20044;-87
2021/11/17 08:23:29;;;;;;;15.10;7.07;;;8.00;99.90;;;;;;5055788;28;20640;-88
2021/11/17 08:25:59;;;;;;;23.48;7.75;;;8.00;99.90;;;;;;5061875;28;20040;-87
2021/11/17 08:28:27;;;;;;;21.10;8.57;;;8.10;99.90;;;;;;5048831;28;20532;-86
2021/11/17 08:30:57;;;;;;;23.40;8.10;;;8.10;99.90;;;;;;5031895;28;20044;-88
2021/11/17 08:33:26;;;;;;;21.90;7.80;;;8.10;99.90;;;;;;5049529;28;20641;-86
2021/11/17 08:35:53;;;;;;;19.70;8.45;;;8.10;99.90;;;;;;5046433;28;20550;-89
2021/11/17 08:38:24;;;;;;;16.58;7.78;;;8.10;99.90;;;;;;5063672;28;20053;-85
2021/11/17 08:41:34;;;;;;;17.63;7.47;;;8.10;99.90;;;;;;5042967;28;20045;-89
2021/11/17 08:44:11;;;;;;;18.83;7.82;;;8.20;99.90;;;;;;5046552;28;20056;-88
2021/11/17 08:47:11;;;;;;;17.67;7.43;;;8.30;99.90;;;;;;5043796;28;20055;-86
2021/11/17 08:49:40;;;;;;;16.70;6.63;;;8.30;99.90;;;;;;5039683;28;20348;-89
2021/11/17 08:52:09;;;;;;;12.95;6.18;;;8.40;99.90;;;;;;5022083;28;20634;-86
2021/11/17 08:54:38;;;;;;;21.80;7.93;;;8.30;99.90;;;;;;5026843;28;20053;-87
2021/11/17 08:57:07;;;;;;;26.33;8.02;;;8.30;99.90;;;;;;5035424;28;20503;-87
2021/11/17 08:59:35;;;;;;;25.10;8.38;;;8.50;99.90;;;;;;5018483;28;20045;-85
2021/11/17 09:02:04;;;;;;;17.63;6.03;;;8.50;99.90;;;;;;5024211;28;20065;-86
2021/11/17 09:04:32;;;;;;;22.08;9.57;;;8.50;99.90;;;;;;5059889;28;20048;-86
2021/11/17 09:07:00;;;;;;;20.58;7.63;;;8.60;99.90;;;;;;5043270;28;20053;-86
2021/11/17 09:09:29;;;;;;;22.75;8.32;;;8.60;99.90;;;;;;5026424;28;20048;-87
2021/11/17 09:11:57;;;;;;;27.15;7.78;;;8.90;99.90;;;;;;5059758;28;20502;-86
2021/11/17 09:14:27;;;;;;;16.20;7.20;;;8.70;99.90;;;;;;5060257;28;20052;-88
2021/11/17 09:16:55;;;;;;;17.70;8.43;;;8.80;99.90;;;;;;5054815;28;20045;-88
2021/11/17 09:19:23;;;;;;;20.58;7.47;;;8.90;99.90;;;;;;5054136;28;20052;-87
2021/11/17 09:21:51;;;;;;;19.35;7.68;;;8.90;99.90;;;;;;5038352;28;20060;-87
2021/11/17 09:24:21;;;;;;;26.15;11.13;;;9.10;99.90;;;;;;5039618;28;20057;-86
2021/11/17 09:26:52;;;;;;;35.17;11.35;;;9.50;99.90;;;;;;5050196;28;20055;-87
2021/11/17 09:29:22;;;;;;;17.30;8.32;;;9.20;99.90;;;;;;5033831;28;20056;-85
2021/11/17 09:31:51;;;;;;;23.35;9.73;;;9.30;99.90;;;;;;5018157;28;20059;-86
2021/11/17 09:34:19;;;;;;;24.52;7.70;;;9.40;99.90;;;;;;5050716;28;20076;-87
2021/11/17 09:36:46;;;;;;;19.17;7.05;;;9.50;99.90;;;;;;5026857;28;20074;-85
2021/11/17 09:39:15;;;;;;;14.70;5.22;;;9.60;99.90;;;;;;5007308;28;20049;-87
2021/11/17 09:41:47;;;;;;;18.02;6.72;;;9.60;99.90;;;;;;5020505;28;20055;-88
2021/11/17 09:44:25;;;;;;;13.18;6.32;;;9.70;99.90;;;;;;5026167;28;20049;-88
2021/11/17 09:46:54;;;;;;;22.77;8.93;;;9.70;99.90;;;;;;5060412;28;20052;-86
2021/11/17 09:49:44;;;;;;;26.27;7.47;;;9.60;99.90;;;;;;5049165;28;20053;-88
2021/11/17 09:52:16;;;;;;;24.70;5.93;;;9.70;99.90;;;;;;5053016;28;20056;-86
2021/11/17 09:55:11;;;;;;;20.58;6.55;;;9.60;99.90;;;;;;5070266;28;20056;-86
2021/11/17 09:57:43;;;;;;;29.25;7.85;;;9.60;99.90;;;;;;5032977;28;20044;-86
2021/11/17 10:00:17;;;;;;;22.05;7.47;;;9.60;99.90;;;;;;5033222;28;20482;-87
2021/11/17 10:02:55;;;;;;;27.58;8.63;;;9.60;99.90;;;;;;5050735;28;20044;-84
2021/11/17 10:11:18;;;;;;;22.35;7.43;;;9.80;99.90;;;;;;5037095;28;20049;-87
2021/11/17 10:13:58;;;;;;;34.92;8.35;;;9.80;99.90;;;;;;5019888;28;20044;-86
2021/11/17 10:16:27;;;;;;;19.52;5.35;;;9.90;99.90;;;;;;5030037;28;20053;-87
2021/11/17 10:19:16;;;;;;;29.52;8.90;;;10.00;99.90;;;;;;5053196;28;20119;-87
2021/11/17 10:21:46;;;;;;;25.08;6.55;;;10.00;99.90;;;;;;5070738;28;20044;-87
2021/11/17 10:24:17;;;;;;;35.78;6.35;;;10.10;99.90;;;;;;5052759;28;20487;-87
2021/11/17 10:26:59;;;;;;;26.42;5.55;;;10.30;99.90;;;;;;5038591;28;20044;-87
2021/11/17 10:29:34;;;;;;;27.90;6.15;;;10.40;99.90;;;;;;5018717;28;20044;-87
2021/11/17 10:32:25;;;;;;;22.58;6.80;;;10.20;99.90;;;;;;5033464;28;20040;-86
2021/11/17 10:35:05;;;;;;;24.38;5.80;;;10.30;99.90;;;;;;5035566;28;20495;-86
2021/11/17 10:37:58;;;;;;;31.75;6.28;;;10.40;99.90;;;;;;5034862;28;20052;-88
2021/11/17 10:40:28;;;;;;;22.27;6.22;;;10.40;99.90;;;;;;5035829;28;20044;-87
2021/11/17 10:43:04;;;;;;;23.65;6.63;;;10.60;99.90;;;;;;5035030;28;20051;-88
2021/11/17 10:45:48;;;;;;;23.92;5.25;;;10.50;99.90;;;;;;5035909;28;20044;-87
2021/11/17 10:48:22;;;;;;;;;;;10.60;99.90;;;;;;5051103;28;20044;-87
2021/11/17 10:50:50;;;;;;;26.75;6.47;;;10.60;99.90;;;;;;5018088;28;19928;-87
2021/11/17 10:53:30;;;;;;;19.33;5.80;;;10.70;99.90;;;;;;5032168;28;20064;-87
2021/11/17 10:56:04;;;;;;;24.83;5.75;;;10.70;99.90;;;;;;5031479;28;20057;-87
2021/11/17 10:58:36;;;;;;;20.30;5.72;;;10.70;99.90;;;;;;5044491;28;20056;-86
2021/11/17 11:01:22;;;;;;;14.07;4.97;;;10.80;99.90;;;;;;5030782;28;20057;-90
2021/11/17 11:03:59;;;;;;;25.25;7.13;;;10.80;99.90;;;;;;5017044;28;20056;-86
2021/11/17 11:06:39;;;;;;;24.25;6.05;;;10.80;99.90;;;;;;5029640;28;20049;-87
2021/11/17 11:09:21;;;;;;;17.60;5.25;;;10.90;99.90;;;;;;5033042;28;20044;-86
2021/11/17 11:11:54;;;;;;;23.83;6.70;;;10.90;99.90;;;;;;5043397;28;20079;-87
2021/11/17 11:15:01;;;;;;;29.30;5.78;;;10.90;99.90;;;;;;5017636;28;20047;-88
2021/11/17 11:17:33;;;;;;;30.23;5.88;;;11.00;99.90;;;;;;5014733;28;20048;-88
2021/11/17 11:20:17;;;;;;;29.67;6.70;;;11.10;99.90;;;;;;5050789;28;20044;-86
2021/11/17 11:23:04;;;;;;;23.70;5.82;;;11.10;99.90;;;;;;5049376;28;20049;-85
2021/11/17 11:25:42;;;;;;;21.55;6.47;;;11.10;99.90;;;;;;5016645;28;20052;-85
2021/11/17 11:28:42;;;;;;;18.80;7.07;;;11.20;99.90;;;;;;5054726;28;20040;-87
2021/11/17 11:31:10;;;;;;;26.15;6.20;;;11.20;99.90;;;;;;5050757;28;20049;-86
2021/11/17 11:34:14;;;;;;;17.95;4.78;;;11.20;99.90;;;;;;5037637;28;20056;-87
2021/11/17 11:36:49;;;;;;;18.75;5.15;;;11.30;99.90;;;;;;4985931;28;20040;-86
2021/11/17 11:39:19;;;;;;;18.77;7.25;;;10.80;99.90;;;;;;5034456;28;20044;-87
2021/11/17 11:42:39;;;;;;;32.85;9.05;;;11.30;99.90;;;;;;5037325;28;20051;-88
2021/11/17 11:45:10;;;;;;;21.95;4.47;;;11.40;99.90;;;;;;5028004;28;20633;-88
2021/11/17 11:48:07;;;;;;;22.42;4.13;;;11.50;99.90;;;;;;5033026;28;20053;-88
2021/11/17 11:50:38;;;;;;;15.30;5.03;;;11.60;99.90;;;;;;5024918;28;20311;-86
2021/11/17 11:53:12;;;;;;;24.77;6.35;;;11.70;99.90;;;;;;5013014;28;20056;-85
2021/11/17 11:55:52;;;;;;;13.15;4.57;;;11.70;99.90;;;;;;5048270;28;20045;-88
2021/11/17 11:58:26;;;;;;;31.38;6.80;;;11.90;99.90;;;;;;5032625;28;20052;-88
2021/11/17 12:01:04;;;;;;;22.55;7.05;;;11.90;99.90;;;;;;5015930;28;20059;-87
2021/11/17 12:03:43;;;;;;;25.92;6.63;;;12.00;99.90;;;;;;5031675;28;20071;-86
2021/11/17 12:06:18;;;;;;;22.75;4.68;;;12.20;99.90;;;;;;5051376;28;20048;-86
2021/11/17 12:09:00;;;;;;;14.43;4.13;;;12.20;99.90;;;;;;5036670;28;20047;-86
2021/11/17 12:11:31;;;;;;;19.08;4.85;;;12.20;99.90;;;;;;5073578;28;20056;-87
2021/11/17 12:14:07;;;;;;;;;;;12.30;99.90;;;;;;5059823;28;20044;-87
2021/11/17 12:16:45;;;;;;;20.88;4.28;;;12.30;99.90;;;;;;5076452;28;19928;-88
2021/11/17 12:19:25;;;;;;;25.90;5.55;;;12.40;99.90;;;;;;5036521;28;20049;-88
2021/11/17 12:22:11;;;;;;;18.73;5.38;;;12.40;99.90;;;;;;5036755;28;20527;-87
2021/11/17 12:24:43;;;;;;;20.45;6.47;;;12.50;99.90;;;;;;5035040;28;20050;-88
2021/11/17 12:27:24;;;;;;;19.96;4.60;;;12.50;99.90;;;;;;5027296;28;10000661;-88
2021/11/17 12:30:19;;;;;;;30.13;6.75;;;12.50;99.90;;;;;;5049574;28;20267;-88
2021/11/17 12:33:04;;;;;;;24.98;7.32;;;12.60;99.90;;;;;;5068042;28;20055;-88
2021/11/17 12:35:40;;;;;;;25.13;6.13;;;12.60;99.90;;;;;;5016800;28;20048;-90
2021/11/17 12:38:15;;;;;;;9.80;3.85;;;12.60;99.90;;;;;;5016138;28;20048;-87
2021/11/17 12:40:50;;;;;;;24.25;5.78;;;12.60;99.90;;;;;;5053169;28;20067;-87
2021/11/17 12:43:31;;;;;;;21.95;4.13;;;12.60;99.90;;;;;;5049590;28;20036;-87
2021/11/17 12:46:06;;;;;;;18.42;4.35;;;12.60;99.90;;;;;;5052712;28;20055;-86
2021/11/17 12:48:39;;;;;;;14.40;3.67;;;12.60;99.90;;;;;;5033859;28;20053;-87
2021/11/17 12:51:28;;;;;;;20.63;4.60;;;12.70;99.90;;;;;;5017089;28;20071;-88
2021/11/17 12:54:03;;;;;;;24.15;4.60;;;12.60;99.90;;;;;;5052763;28;20048;-88
2021/11/17 12:56:44;;;;;;;17.27;4.50;;;12.60;99.90;;;;;;5024052;28;20162;-88
2021/11/17 12:59:21;;;;;;;;;;;12.60;99.90;;;;;;5037552;28;20044;-88
2021/11/17 13:01:57;;;;;;;20.60;6.68;;;12.60;99.90;;;;;;5039266;28;20533;-88
2021/11/17 13:04:38;;;;;;;20.98;4.68;;;12.70;99.90;;;;;;5050420;28;20061;-88
2021/11/17 13:07:13;;;;;;;22.85;6.60;;;12.70;99.90;;;;;;5035239;28;20060;-90
2021/11/17 13:09:45;;;;;;;32.10;5.00;;;12.70;99.90;;;;;;5025250;28;20059;-90
2021/11/17 13:12:26;;;;;;;21.48;4.43;;;12.70;99.90;;;;;;5044005;28;20053;-87
2021/11/17 13:14:58;;;;;;;24.35;5.85;;;12.70;99.90;;;;;;5041102;28;20059;-88
2021/11/17 13:17:32;;;;;;;19.73;5.85;;;12.70;99.90;;;;;;5021562;28;20064;-91
2021/11/17 13:20:12;;;;;;;13.98;4.55;;;12.70;99.90;;;;;;5036529;28;20055;-89
2021/11/17 13:22:48;;;;;;;21.60;6.47;;;12.70;99.90;;;;;;5040043;28;20060;-89
2021/11/17 13:25:41;;;;;;;23.50;7.80;;;12.70;99.90;;;;;;5064977;28;20044;-91
2021/11/17 13:28:37;;;;;;;26.45;6.38;;;12.70;99.90;;;;;;5033928;28;20048;-90
2021/11/17 13:31:35;;;;;;;23.63;7.25;;;12.80;99.90;;;;;;5028543;28;20051;-90
2021/11/17 13:34:09;;;;;;;22.75;5.68;;;12.80;99.90;;;;;;5050028;28;20043;-90
2021/11/17 13:36:48;;;;;;;23.90;7.97;;;12.90;99.90;;;;;;5022492;28;21224;-90
2021/11/17 13:39:20;;;;;;;17.23;4.53;;;13.00;99.90;;;;;;5026860;28;20045;-90
2021/11/17 13:41:51;;;;;;;20.20;4.65;;;13.00;99.90;;;;;;5020175;28;20056;-88
2021/11/17 13:44:22;;;;;;;20.98;5.50;;;13.10;99.90;;;;;;5035145;28;20135;-89
2021/11/17 13:47:08;;;;;;;25.75;5.20;;;13.30;99.90;;;;;;5033489;28;20319;-90
2021/11/17 13:49:42;;;;;;;18.35;4.95;;;13.10;99.90;;;;;;5055921;28;20059;-91
2021/11/17 13:52:14;;;;;;;26.55;5.60;;;13.20;99.90;;;;;;5051320;28;20056;-90
2021/11/17 13:54:44;;;;;;;17.90;4.22;;;13.20;99.90;;;;;;5037253;28;20068;-91
2021/11/17 13:57:18;;;;;;;18.35;4.93;;;13.20;99.90;;;;;;5018376;28;20052;-89
2021/11/17 13:59:51;;;;;;;16.95;5.20;;;13.30;99.90;;;;;;5021679;28;20048;-89
2021/11/17 14:02:20;;;;;;;19.05;5.03;;;13.20;99.90;;;;;;5028805;28;20048;-88
2021/11/17 14:04:49;;;;;;;24.10;4.53;;;13.30;99.90;;;;;;5053175;28;20059;-89
2021/11/17 14:07:20;;;;;;;17.25;5.20;;;13.30;99.90;;;;;;5034965;28;20041;-89
2021/11/17 14:09:52;;;;;;;17.35;4.68;;;13.30;99.90;;;;;;5021894;28;20044;-90
2021/11/17 14:12:21;;;;;;;12.73;3.55;;;13.20;99.90;;;;;;5020036;28;20068;-88
2021/11/17 14:14:56;;;;;;;12.70;3.45;;;13.20;99.90;;;;;;5031620;28;20569;-90
2021/11/17 14:17:30;;;;;;;20.48;3.78;;;12.20;99.90;;;;;;5048752;28;20040;-89
2021/11/17 14:20:01;;;;;;;12.38;3.47;;;13.30;99.90;;;;;;5028623;28;20053;-90
2021/11/17 14:22:29;;;;;;;14.45;3.50;;;13.30;99.90;;;;;;5038866;28;20048;-90
2021/11/17 14:25:02;;;;;;;18.80;5.20;;;13.40;99.90;;;;;;5029985;28;20060;-89
2021/11/17 14:27:39;;;;;;;15.48;4.97;;;13.30;99.90;;;;;;5017160;28;20051;-89
2021/11/17 14:30:17;;;;;;;18.63;3.95;;;13.30;99.90;;;;;;5014391;28;20051;-89
2021/11/17 14:32:48;;;;;;;17.58;3.63;;;13.20;99.90;;;;;;5037568;28;20039;-91
2021/11/17 14:35:23;;;;;;;25.55;5.50;;;13.10;99.90;;;;;;5034843;28;20063;-91
2021/11/17 14:37:54;;;;;;;15.00;3.80;;;13.00;99.90;;;;;;5046040;28;20055;-89
2021/11/17 14:40:25;;;;;;;24.60;5.63;;;13.00;99.90;;;;;;5059370;28;20651;-90
2021/11/17 14:42:56;;;;;;;13.85;3.75;;;13.00;99.90;;;;;;5046551;28;20066;-90
2021/11/17 14:45:27;;;;;;;14.95;4.20;;;12.90;99.90;;;;;;5030228;28;20057;-91
2021/11/17 14:47:57;;;;;;;12.68;5.38;;;13.00;99.90;;;;;;5024758;28;20415;-90
2021/11/17 14:50:28;;;;;;;21.30;5.63;;;13.00;99.90;;;;;;5040795;28;20052;-90
2021/11/17 14:52:56;;;;;;;18.25;4.38;;;13.00;99.90;;;;;;5036802;28;20060;-91
2021/11/17 14:55:27;;;;;;;20.33;4.47;;;13.00;99.90;;;;;;5050659;28;20041;-91
2021/11/17 14:57:59;;;;;;;16.75;4.40;;;13.00;99.90;;;;;;5037107;28;20051;-90
2021/11/17 15:00:37;;;;;;;14.88;4.53;;;13.10;99.90;;;;;;5051301;28;20045;-91
2021/11/17 15:03:06;;;;;;;16.48;5.47;;;12.20;99.90;;;;;;5071075;28;20060;-90
2021/11/17 15:05:35;;;;;;;21.52;4.50;;;13.00;99.90;;;;;;5050351;28;20060;-91
2021/11/17 15:08:05;;;;;;;18.70;4.70;;;13.00;99.90;;;;;;5024707;28;20657;-91
2021/11/17 15:10:34;;;;;;;21.70;6.78;;;12.70;99.90;;;;;;5044322;28;20044;-88
2021/11/17 15:13:07;;;;;;;16.05;5.40;;;12.70;99.90;;;;;;5052790;28;20049;-91
2021/11/17 15:15:41;;;;;;;30.15;5.53;;;12.50;99.90;;;;;;5042076;28;20052;-90
2021/11/17 15:18:20;;;;;;;17.60;4.57;;;12.50;99.90;;;;;;5034452;28;20048;-90
2021/11/17 15:20:52;;;;;;;20.80;6.95;;;11.80;99.90;;;;;;5043407;28;20053;-91
2021/11/17 15:23:32;;;;;;;24.95;5.30;;;13.50;99.90;;;;;;5045189;23;20045;31
2021/11/17 15:26:08;;;;;;;16.45;4.43;;;12.30;99.90;;;;;;4975340;28;20461;-87
2021/11/17 15:28:55;;;;;;;17.20;5.40;;;12.30;99.90;;;;;;4970065;28;20046;-91
2021/11/17 15:31:29;;;;;;;22.75;6.70;;;12.10;99.90;;;;;;4976278;28;20042;-90
2021/11/17 15:33:58;;;;;;;21.25;4.43;;;12.20;99.90;;;;;;4988543;28;20444;-91
2021/11/17 15:36:27;;;;;;;26.25;6.28;;;12.20;99.90;;;;;;4975655;28;20054;-88
2021/11/17 15:38:55;;;;;;;28.55;8.45;;;12.10;99.90;;;;;;4994194;28;20047;-90
2021/11/17 15:41:28;;;;;;;22.42;6.13;;;12.10;99.90;;;;;;4985005;28;20070;-91
2021/11/17 15:43:57;;;;;;;24.17;6.15;;;12.00;99.90;;;;;;4985242;28;20042;-89
2021/11/17 15:46:28;;;;;;;26.00;4.80;;;11.90;99.90;;;;;;5000666;28;20065;-89
2021/11/17 15:48:56;;;;;;;29.13;8.60;;;11.90;99.90;;;;;;4995089;28;20043;-88
2021/11/17 15:51:41;;;;;;;25.45;6.68;;;11.80;99.90;;;;;;4968819;28;20433;-89
2021/11/17 15:54:11;;;;;;;24.30;6.43;;;11.80;99.90;;;;;;4965081;28;20046;-88
2021/11/17 15:57:03;;;;;;;26.95;6.72;;;11.70;99.90;;;;;;4976560;28;20058;-89
2021/11/17 15:59:35;;;;;;;22.45;7.13;;;11.60;99.90;;;;;;5000760;28;20049;-88
2021/11/17 16:02:20;;;;;;;16.67;4.43;;;11.50;99.90;;;;;;4973285;28;20060;-89
2021/11/17 16:05:29;;;;;;;28.42;6.85;;;11.50;99.90;;;;;;4975446;28;20042;-90
2021/11/17 16:08:15;;;;;;;26.77;7.47;;;11.40;99.90;;;;;;4977590;28;20056;-90
2021/11/17 16:10:56;;;;;;;30.67;6.60;;;11.30;99.90;;;;;;5004907;28;20046;-89
2021/11/17 16:13:44;;;;;;;17.25;4.97;;;11.20;99.90;;;;;;5009305;28;20836;-90